Time;durP1;ratioP1;P1;durP2;ratioP2;P2;SDS_P1;SDS_P2;PMS_P1;PMS_P2;Temp;Humidity;BMP_temperature;BMP_pressure;BME280_temperature;BME280_humidity;BME280_pressure;Samples;Min_cycle;Max_cycle;Signal;HPM_P1;HPM_P2
2023/05/27 00:01:18;;;;;;;11.50;4.80;;;14.60;99.90;;;;;;5066010;28;20603;-56
2023/05/27 00:03:44;;;;;;;9.83;5.00;;;14.60;99.90;;;;;;5065328;28;20677;-56
2023/05/27 00:06:10;;;;;;;8.47;5.00;;;14.60;99.90;;;;;;5064816;28;20462;-57
2023/05/27 00:08:36;;;;;;;9.57;4.53;;;14.60;99.90;;;;;;5062581;28;20455;-58
2023/05/27 00:11:01;;;;;;;11.80;4.87;;;14.50;99.90;;;;;;5067880;28;20442;-55
2023/05/27 00:13:27;;;;;;;12.57;5.27;;;14.50;99.90;;;;;;5062235;28;20200;-57
2023/05/27 00:15:52;;;;;;;13.63;6.17;;;14.40;99.90;;;;;;5062312;28;20214;-57
2023/05/27 00:18:18;;;;;;;9.77;5.40;;;14.30;99.90;;;;;;5063063;28;20189;-57
2023/05/27 00:20:44;;;;;;;15.53;5.53;;;14.20;99.90;;;;;;5066179;28;20302;-56
2023/05/27 00:23:09;;;;;;;15.90;5.90;;;14.00;99.90;;;;;;5066990;28;20203;-57
2023/05/27 00:25:36;;;;;;;11.83;5.97;;;14.00;99.90;;;;;;5060121;28;20342;-57
2023/05/27 00:28:01;;;;;;;9.27;4.67;;;14.00;99.90;;;;;;5068672;28;20248;-57
2023/05/27 00:30:27;;;;;;;11.83;5.33;;;14.10;99.90;;;;;;5060527;28;20451;-59
2023/05/27 00:32:52;;;;;;;14.70;5.50;;;14.00;99.90;;;;;;5062047;28;20218;-57
2023/05/27 00:35:18;;;;;;;10.47;5.37;;;14.00;99.90;;;;;;5064981;28;20216;-57
2023/05/27 00:37:44;;;;;;;11.03;5.73;;;13.80;99.90;;;;;;5064002;28;20270;-56
2023/05/27 00:40:11;;;;;;;9.93;5.00;;;13.90;99.90;;;;;;5067501;28;20679;-57
2023/05/27 00:42:37;;;;;;;15.43;6.63;;;14.00;99.90;;;;;;5067557;28;20294;-57
2023/05/27 00:45:03;;;;;;;8.90;5.40;;;13.90;99.90;;;;;;5069294;28;20529;-57
2023/05/27 00:47:31;;;;;;;13.47;6.13;;;13.80;99.90;;;;;;5065978;28;20192;-57
2023/05/27 00:49:57;;;;;;;17.73;6.40;;;13.80;99.90;;;;;;5066208;28;21257;-56
2023/05/27 00:52:24;;;;;;;11.00;6.57;;;13.80;99.90;;;;;;5072626;28;20429;-57
2023/05/27 00:54:52;;;;;;;13.57;6.83;;;14.40;99.90;;;;;;5068736;28;20830;-57
2023/05/27 00:57:17;;;;;;;11.13;5.90;;;13.70;99.90;;;;;;5072490;28;20473;-57
2023/05/27 00:59:43;;;;;;;10.30;5.10;;;13.80;99.90;;;;;;5069494;28;20434;-58
2023/05/27 01:02:09;;;;;;;9.30;5.20;;;13.80;99.90;;;;;;5067014;28;20195;-56
2023/05/27 01:04:36;;;;;;;12.53;4.77;;;14.00;99.90;;;;;;5068205;28;20296;-56
2023/05/27 01:07:16;;;;;;;6.70;4.30;;;13.90;99.90;;;;;;5069544;28;20188;-58
2023/05/27 01:09:54;;;;;;;9.13;5.30;;;13.90;99.90;;;;;;5069032;28;20449;-58
2023/05/27 01:12:40;;;;;;;9.07;4.20;;;13.70;99.90;;;;;;5070210;28;20776;-57
2023/05/27 01:15:07;;;;;;;8.10;4.73;;;13.50;99.90;;;;;;5060968;28;20477;-56
2023/05/27 01:17:42;;;;;;;14.60;5.90;;;13.60;99.90;;;;;;5064165;28;20532;-57
2023/05/27 01:20:13;;;;;;;13.00;5.73;;;13.60;99.90;;;;;;5067037;28;20444;-57
2023/05/27 01:22:41;;;;;;;10.97;5.93;;;13.60;99.90;;;;;;5064639;28;20496;-56
2023/05/27 01:25:08;;;;;;;10.23;5.57;;;13.60;99.90;;;;;;5065148;28;20442;-57
2023/05/27 01:27:34;;;;;;;12.87;5.70;;;13.50;99.90;;;;;;5065286;28;20533;-57
2023/05/27 01:30:00;;;;;;;13.33;6.00;;;13.60;99.90;;;;;;5070653;28;21292;-56
2023/05/27 01:32:45;;;;;;;15.60;5.87;;;13.50;99.90;;;;;;5066200;28;20180;-57
2023/05/27 01:35:27;;;;;;;11.27;4.60;;;13.50;99.90;;;;;;5067757;28;20461;-57
2023/05/27 01:37:55;;;;;;;13.93;4.90;;;13.50;99.90;;;;;;5066600;28;20454;-57
2023/05/27 01:40:21;;;;;;;11.60;5.97;;;13.50;99.90;;;;;;5063054;28;20486;-56
2023/05/27 01:42:48;;;;;;;8.17;4.93;;;13.50;99.90;;;;;;5072398;28;20496;-58
2023/05/27 01:45:14;;;;;;;13.57;6.07;;;13.50;99.90;;;;;;5062949;28;20879;-56
2023/05/27 01:47:42;;;;;;;8.70;5.47;;;13.50;99.90;;;;;;5063719;28;20470;-57
2023/05/27 01:50:08;;;;;;;11.67;6.23;;;13.40;99.90;;;;;;5065724;28;20176;-57
2023/05/27 01:52:33;;;;;;;14.50;6.80;;;13.30;99.90;;;;;;5067549;28;20502;-56
2023/05/27 01:54:59;;;;;;;11.00;5.43;;;13.30;99.90;;;;;;5068870;28;20186;-57
2023/05/27 01:57:25;;;;;;;11.13;6.50;;;13.30;99.90;;;;;;5068996;28;20216;-56
2023/05/27 01:59:51;;;;;;;9.80;5.53;;;13.10;99.90;;;;;;5068181;28;20204;-57
2023/05/27 02:02:16;;;;;;;11.40;6.90;;;13.10;99.90;;;;;;5059964;28;20457;-56
2023/05/27 02:04:42;;;;;;;10.50;5.90;;;13.10;99.90;;;;;;5064686;28;21061;-57
2023/05/27 02:07:08;;;;;;;11.23;6.50;;;13.10;99.90;;;;;;5067750;28;20644;-57
2023/05/27 02:09:33;;;;;;;17.00;6.87;;;13.10;99.90;;;;;;5064248;28;20187;-56
2023/05/27 02:11:59;;;;;;;14.47;5.80;;;13.10;99.90;;;;;;5070512;28;20179;-57
2023/05/27 02:14:24;;;;;;;13.50;6.07;;;13.00;99.90;;;;;;5060507;28;20673;-55
2023/05/27 02:16:50;;;;;;;13.13;6.87;;;12.90;99.90;;;;;;5069986;28;20215;-57
2023/05/27 02:19:17;;;;;;;9.47;6.07;;;12.80;99.90;;;;;;5065284;28;20245;-57
2023/05/27 02:21:42;;;;;;;13.23;6.90;;;12.80;99.90;;;;;;5066580;28;20596;-57
2023/05/27 02:24:08;;;;;;;13.13;8.27;;;12.70;1.00;;;;;;5058921;28;21297;-56
2023/05/27 02:26:34;;;;;;;16.17;8.20;;;12.80;1.00;;;;;;5060806;28;20187;-58
2023/05/27 02:29:00;;;;;;;10.33;6.70;;;12.80;99.90;;;;;;5056715;28;20191;-57
2023/05/27 02:31:26;;;;;;;14.60;7.27;;;12.70;99.90;;;;;;5062605;28;20438;-56
2023/05/27 02:33:51;;;;;;;11.00;6.50;;;12.60;1.00;;;;;;5061965;28;20576;-57
2023/05/27 02:36:17;;;;;;;9.83;5.77;;;12.50;1.00;;;;;;5065204;28;20199;-56
2023/05/27 02:38:44;;;;;;;8.83;5.07;;;12.50;1.00;;;;;;5066992;28;20232;-57
2023/05/27 02:41:09;;;;;;;10.10;7.30;;;12.50;1.00;;;;;;5069052;28;20275;-56
2023/05/27 02:43:35;;;;;;;9.97;5.07;;;12.40;1.00;;;;;;5067413;28;20912;-57
2023/05/27 02:46:01;;;;;;;11.80;6.70;;;12.40;1.00;;;;;;5067890;28;20510;-56
2023/05/27 02:48:27;;;;;;;13.30;6.00;;;12.40;1.00;;;;;;5063508;28;20442;-56
2023/05/27 02:50:52;;;;;;;11.97;5.73;;;12.30;1.00;;;;;;5070124;28;20265;-57
2023/05/27 02:53:18;;;;;;;15.27;6.30;;;12.40;1.00;;;;;;5062186;28;20238;-56
2023/05/27 02:55:43;;;;;;;13.77;5.23;;;12.40;1.00;;;;;;5064819;28;20200;-57
2023/05/27 02:58:09;;;;;;;9.47;5.70;;;12.40;1.00;;;;;;5067173;28;20219;-56
2023/05/27 03:00:35;;;;;;;8.30;5.37;;;12.50;1.00;;;;;;5069403;28;20180;-56
2023/05/27 03:03:03;;;;;;;9.13;5.47;;;12.40;1.00;;;;;;5066868;28;20234;-56
2023/05/27 03:05:29;;;;;;;10.70;5.83;;;12.50;1.00;;;;;;5070113;28;20219;-56
2023/05/27 03:07:54;;;;;;;17.27;6.20;;;12.40;1.00;;;;;;5068005;28;20496;-56
2023/05/27 03:10:20;;;;;;;8.87;5.83;;;12.40;1.00;;;;;;5066211;28;20191;-57
2023/05/27 03:12:46;;;;;;;10.27;6.17;;;12.30;1.00;;;;;;5067095;28;20195;-56
2023/05/27 03:15:11;;;;;;;12.53;6.37;;;12.30;1.00;;;;;;5062137;28;20503;-57
2023/05/27 03:17:37;;;;;;;10.67;6.60;;;12.40;1.00;;;;;;5060587;28;20215;-56
2023/05/27 03:20:05;;;;;;;14.57;6.63;;;12.50;1.00;;;;;;5065568;28;20200;-56
2023/05/27 03:22:31;;;;;;;10.97;6.70;;;12.50;1.00;;;;;;5063221;28;20503;-56
2023/05/27 03:24:57;;;;;;;12.70;6.40;;;12.50;1.00;;;;;;5064689;28;20807;-57
2023/05/27 03:27:22;;;;;;;10.63;6.00;;;12.60;1.00;;;;;;5063693;28;20587;-56
2023/05/27 03:29:48;;;;;;;13.07;6.10;;;12.50;1.00;;;;;;5066634;28;20479;-57
2023/05/27 03:32:14;;;;;;;13.53;5.60;;;12.70;1.00;;;;;;5062385;28;20197;-57
2023/05/27 03:34:40;;;;;;;9.80;6.00;;;12.70;1.00;;;;;;5061874;28;20200;-56
2023/05/27 03:37:06;;;;;;;11.23;6.13;;;12.70;1.00;;;;;;5066839;28;20450;-56
2023/05/27 03:39:31;;;;;;;8.63;5.47;;;12.70;1.00;;;;;;5060774;28;20248;-55
2023/05/27 03:41:57;;;;;;;10.53;5.70;;;12.50;1.00;;;;;;5062160;28;20693;-56
2023/05/27 03:44:23;;;;;;;13.30;5.93;;;12.40;1.00;;;;;;5061717;28;20317;-56
2023/05/27 03:46:48;;;;;;;13.03;5.50;;;12.40;1.00;;;;;;5057136;28;20446;-56
2023/05/27 03:49:14;;;;;;;9.10;5.90;;;12.40;1.00;;;;;;5062846;28;21065;-56
2023/05/27 03:51:40;;;;;;;9.97;5.70;;;12.40;1.00;;;;;;5064284;28;20183;-57
2023/05/27 03:54:05;;;;;;;16.90;6.43;;;12.60;1.00;;;;;;5068273;28;20213;-57
2023/05/27 03:56:31;;;;;;;12.23;5.50;;;12.60;1.00;;;;;;5060885;28;20579;-57
2023/05/27 03:58:57;;;;;;;9.67;5.33;;;12.60;1.00;;;;;;5064371;28;20202;-57
2023/05/27 04:01:23;;;;;;;9.10;5.20;;;12.50;1.00;;;;;;5058152;28;20200;-57
2023/05/27 04:03:49;;;;;;;9.50;5.07;;;12.50;1.00;;;;;;5057854;28;20207;-56
2023/05/27 04:06:15;;;;;;;10.67;6.47;;;12.50;1.00;;;;;;5053110;28;20546;-56
2023/05/27 04:08:41;;;;;;;15.80;8.00;;;12.50;1.00;;;;;;5053780;28;20566;-57
2023/05/27 04:11:12;;;;;;;11.17;5.87;;;12.50;1.00;;;;;;5075300;28;20837;-57
2023/05/27 04:13:38;;;;;;;10.27;5.60;;;12.50;1.00;;;;;;5066313;28;20966;-56
2023/05/27 04:16:03;;;;;;;11.57;5.60;;;12.60;1.00;;;;;;5061381;28;20535;-56
2023/05/27 04:18:29;;;;;;;8.90;5.37;;;12.60;1.00;;;;;;5068511;28;20688;-56
2023/05/27 04:20:55;;;;;;;16.80;6.73;;;12.50;1.00;;;;;;5064888;28;20572;-57
2023/05/27 04:23:20;;;;;;;9.50;5.37;;;12.60;1.00;;;;;;5066054;28;20242;-56
2023/05/27 04:25:48;;;;;;;10.10;5.23;;;12.70;1.00;;;;;;5066862;28;20194;-56
2023/05/27 04:28:15;;;;;;;10.17;5.40;;;12.70;1.00;;;;;;5066538;28;20722;-57
2023/05/27 04:30:41;;;;;;;12.80;5.37;;;12.70;1.00;;;;;;5064775;28;20450;-57
2023/05/27 04:33:07;;;;;;;12.97;5.47;;;12.80;1.00;;;;;;5063870;28;20572;-57
2023/05/27 04:35:33;;;;;;;10.17;5.60;;;12.80;1.00;;;;;;5066954;28;20815;-57
2023/05/27 04:38:00;;;;;;;12.87;5.33;;;12.70;1.00;;;;;;5067611;28;20503;-57
2023/05/27 04:40:28;;;;;;;12.20;5.77;;;12.70;1.00;;;;;;5070198;28;20857;-57
2023/05/27 04:42:54;;;;;;;9.43;4.40;;;12.80;1.00;;;;;;5060303;28;20473;-56
2023/05/27 04:45:20;;;;;;;9.50;5.20;;;13.00;1.00;;;;;;5059536;28;20449;-58
2023/05/27 04:47:46;;;;;;;12.53;4.83;;;13.20;1.00;;;;;;5068039;28;20442;-57
2023/05/27 04:50:14;;;;;;;14.33;6.00;;;13.30;1.00;;;;;;5067520;28;20210;-57
2023/05/27 04:52:41;;;;;;;17.50;7.10;;;13.40;1.00;;;;;;5068483;28;20255;-57
2023/05/27 04:55:09;;;;;;;12.70;5.60;;;13.50;1.00;;;;;;5064180;28;20520;-59
2023/05/27 04:57:36;;;;;;;10.23;5.40;;;13.60;1.00;;;;;;5068454;28;20521;-56
2023/05/27 05:02:39;;;;;;;13.33;5.70;;;13.60;1.00;;;;;;5062442;28;20469;-57
2023/05/27 05:05:14;;;;;;;8.27;5.67;;;13.60;1.00;;;;;;5066178;28;20468;-56
2023/05/27 05:07:41;;;;;;;8.40;6.27;;;13.50;1.00;;;;;;5067330;28;20961;-57
2023/05/27 05:10:08;;;;;;;13.70;5.63;;;13.50;1.00;;;;;;5064996;28;20541;-57
2023/05/27 05:12:33;;;;;;;9.67;5.47;;;13.60;1.00;;;;;;5063566;28;20441;-58
2023/05/27 05:14:59;;;;;;;9.57;5.83;;;13.70;1.00;;;;;;5063185;28;21055;-56
2023/05/27 05:17:25;;;;;;;10.43;5.83;;;13.90;1.00;;;;;;5065377;28;20267;-57
2023/05/27 05:19:52;;;;;;;10.10;5.63;;;14.00;1.00;;;;;;5059050;28;20188;-57
2023/05/27 05:22:22;;;;;;;11.07;5.60;;;14.10;1.00;;;;;;5062830;28;20193;-56
2023/05/27 05:24:49;;;;;;;20.77;6.30;;;14.40;99.90;;;;;;5062296;28;20462;-56
2023/05/27 05:27:15;;;;;;;14.57;6.70;;;14.50;99.90;;;;;;5066327;28;20482;-57
2023/05/27 05:29:40;;;;;;;11.43;6.10;;;14.60;99.90;;;;;;5059963;28;20493;-56
2023/05/27 05:32:13;;;;;;;15.57;6.00;;;14.70;99.90;;;;;;5061705;28;20199;-56
2023/05/27 05:34:38;;;;;;;12.73;6.53;;;14.80;99.90;;;;;;5059034;28;20516;-56
2023/05/27 05:37:04;;;;;;;8.63;5.27;;;14.90;99.90;;;;;;5067111;28;20461;-57
2023/05/27 05:39:30;;;;;;;12.93;5.90;;;15.10;99.90;;;;;;5059699;28;20461;-56
2023/05/27 05:41:57;;;;;;;18.60;8.60;;;15.20;99.90;;;;;;5069240;28;20194;-57
2023/05/27 05:44:23;;;;;;;12.43;6.00;;;15.20;99.90;;;;;;5068323;28;20473;-57
2023/05/27 05:46:49;;;;;;;11.30;6.10;;;14.90;99.90;;;;;;5058893;28;20442;-56
2023/05/27 05:49:14;;;;;;;12.80;5.67;;;14.90;99.90;;;;;;5056196;28;20533;-56
2023/05/27 05:51:40;;;;;;;11.67;6.27;;;15.00;99.90;;;;;;5059816;28;20564;-55
2023/05/27 05:54:06;;;;;;;11.90;5.93;;;15.10;99.90;;;;;;5064662;28;20184;-56
2023/05/27 05:56:33;;;;;;;14.60;6.83;;;15.30;99.90;;;;;;5061618;28;20192;-56
2023/05/27 05:58:58;;;;;;;14.03;5.80;;;15.90;99.90;;;;;;5065017;28;20195;-57
2023/05/27 06:01:26;;;;;;;20.43;6.00;;;15.60;99.90;;;;;;5069844;28;20446;-56
2023/05/27 06:03:52;;;;;;;11.07;5.53;;;15.80;99.90;;;;;;5054205;28;20216;-57
2023/05/27 06:06:18;;;;;;;9.27;4.80;;;15.90;99.90;;;;;;5061396;28;20446;-57
2023/05/27 06:08:45;;;;;;;15.20;5.67;;;16.00;99.90;;;;;;5063444;28;20491;-56
2023/05/27 06:11:11;;;;;;;14.90;6.13;;;16.10;99.90;;;;;;5060639;28;20287;-57
2023/05/27 06:13:36;;;;;;;11.33;5.20;;;16.30;99.90;;;;;;5070897;28;20446;-56
2023/05/27 06:16:02;;;;;;;16.27;4.80;;;16.50;99.90;;;;;;5057030;28;20454;-56
2023/05/27 06:18:28;;;;;;;11.73;5.10;;;16.10;99.90;;;;;;5063632;28;20200;-56
2023/05/27 06:20:53;;;;;;;17.30;4.50;;;16.20;99.90;;;;;;5067275;28;20274;-56
2023/05/27 06:23:19;;;;;;;17.27;5.20;;;16.20;99.90;;;;;;5063446;28;20700;-55
2023/05/27 06:25:45;;;;;;;8.03;4.90;;;16.40;99.90;;;;;;5064029;28;20211;-56
2023/05/27 06:28:10;;;;;;;11.53;4.63;;;16.60;99.90;;;;;;5067233;28;20637;-56
2023/05/27 06:30:37;;;;;;;10.80;4.80;;;16.70;99.90;;;;;;5064247;28;20188;-56
2023/05/27 06:33:03;;;;;;;10.30;4.97;;;16.60;99.90;;;;;;5064125;28;20196;-56
2023/05/27 06:35:28;;;;;;;6.80;3.93;;;17.10;99.90;;;;;;5062725;28;20583;-57
2023/05/27 06:37:54;;;;;;;5.50;3.33;;;16.60;99.90;;;;;;5064130;28;20246;-56
2023/05/27 06:40:20;;;;;;;9.93;4.37;;;16.60;99.90;;;;;;5064788;28;20196;-58
2023/05/27 06:42:45;;;;;;;8.70;4.13;;;16.70;99.90;;;;;;5066432;28;20212;-56
2023/05/27 06:45:11;;;;;;;7.80;4.10;;;16.80;99.90;;;;;;5059548;28;20195;-56
2023/05/27 06:47:38;;;;;;;15.53;4.90;;;17.00;99.90;;;;;;5058057;28;20623;-57
2023/05/27 06:50:04;;;;;;;10.87;4.70;;;17.10;99.90;;;;;;5049077;28;20653;-57
2023/05/27 06:52:30;;;;;;;9.60;4.20;;;17.10;99.90;;;;;;5065251;28;20437;-56
2023/05/27 06:54:55;;;;;;;9.03;4.20;;;17.30;99.90;;;;;;5062515;28;21853;-56
2023/05/27 06:57:21;;;;;;;10.40;4.33;;;17.40;99.90;;;;;;5060588;28;20815;-57
2023/05/27 06:59:55;;;;;;;9.63;4.57;;;17.60;99.90;;;;;;5060774;28;20838;-57
2023/05/27 07:02:20;;;;;;;8.67;4.77;;;17.50;99.90;;;;;;5065558;28;20455;-58
2023/05/27 07:04:46;;;;;;;11.50;4.77;;;17.40;99.90;;;;;;5063820;28;20508;-58
2023/05/27 07:07:11;;;;;;;10.73;4.50;;;17.40;99.90;;;;;;5059061;28;20667;-56
2023/05/27 07:09:37;;;;;;;9.43;3.50;;;17.50;99.90;;;;;;5065856;28;20219;-57
2023/05/27 07:12:03;;;;;;;12.57;4.60;;;17.30;99.90;;;;;;5062031;28;20184;-57
2023/05/27 07:14:29;;;;;;;10.60;3.93;;;17.30;99.90;;;;;;5059088;28;20184;-58
2023/05/27 07:16:55;;;;;;;13.03;5.43;;;17.60;99.90;;;;;;5059585;28;20454;-59
2023/05/27 07:19:22;;;;;;;11.03;4.40;;;17.70;99.90;;;;;;5067002;28;20200;-57
2023/05/27 07:21:48;;;;;;;9.33;4.30;;;17.80;99.90;;;;;;5060985;28;20454;-59
2023/05/27 07:24:13;;;;;;;15.40;5.10;;;18.00;99.90;;;;;;5056750;28;20496;-65
2023/05/27 07:26:40;;;;;;;7.37;3.47;;;18.30;99.90;;;;;;5070517;28;20387;-57
2023/05/27 07:29:05;;;;;;;9.43;3.83;;;18.50;99.90;;;;;;5060742;28;20223;-55
2023/05/27 07:31:31;;;;;;;10.67;3.80;;;18.50;99.90;;;;;;5063012;28;20507;-57
2023/05/27 07:33:57;;;;;;;11.97;4.20;;;18.70;99.90;;;;;;5062386;28;20193;-55
2023/05/27 07:36:22;;;;;;;11.27;4.70;;;18.50;99.90;;;;;;5064265;28;20193;-57
2023/05/27 07:38:48;;;;;;;7.00;4.30;;;18.60;99.90;;;;;;5063467;28;20297;-57
2023/05/27 07:41:14;;;;;;;8.43;4.20;;;18.90;99.90;;;;;;5066405;28;20267;-57
2023/05/27 07:43:40;;;;;;;6.40;4.50;;;19.20;99.90;;;;;;5064565;28;20184;-56
2023/05/27 07:46:05;;;;;;;8.53;4.43;;;18.70;99.90;;;;;;5085909;28;20275;-57
2023/05/27 07:48:31;;;;;;;9.47;4.20;;;18.70;99.90;;;;;;5086019;28;20628;-56
2023/05/27 07:50:57;;;;;;;12.27;4.33;;;18.60;99.90;;;;;;5080730;28;20198;-57
2023/05/27 07:53:23;;;;;;;9.67;3.80;;;18.50;99.90;;;;;;5058961;28;20207;-57
2023/05/27 07:55:48;;;;;;;9.23;4.80;;;18.50;99.90;;;;;;5052133;28;20176;-56
2023/05/27 07:58:14;;;;;;;8.43;3.90;;;18.50;99.90;;;;;;5063934;28;20258;-57
2023/05/27 08:00:40;;;;;;;13.87;4.00;;;18.70;99.90;;;;;;5063735;28;20275;-56
2023/05/27 08:03:05;;;;;;;6.90;4.47;;;18.90;99.90;;;;;;5065354;28;20214;-56
2023/05/27 08:05:32;;;;;;;8.90;4.60;;;19.10;99.90;;;;;;5061342;28;20209;-56
2023/05/27 08:07:58;;;;;;;6.13;4.03;;;19.00;99.90;;;;;;5065095;28;20238;-58
2023/05/27 08:10:23;;;;;;;11.07;4.20;;;19.00;99.90;;;;;;5057033;28;20767;-57
2023/05/27 08:12:49;;;;;;;8.70;3.60;;;19.00;99.90;;;;;;5047780;28;20188;-56
2023/05/27 08:15:15;;;;;;;8.77;4.17;;;18.80;99.90;;;;;;5048224;28;20284;-56
2023/05/27 08:17:42;;;;;;;8.33;3.40;;;18.90;99.90;;;;;;5049628;28;20193;-56
2023/05/27 08:20:08;;;;;;;5.40;3.27;;;19.10;99.90;;;;;;5049087;28;20181;-56
2023/05/27 08:22:33;;;;;;;5.50;3.53;;;19.50;99.90;;;;;;5046529;28;20493;-57
2023/05/27 08:24:59;;;;;;;9.20;4.27;;;19.80;99.90;;;;;;5048201;28;20680;-56
2023/05/27 08:27:50;;;;;;;10.60;3.83;;;19.90;99.90;;;;;;5050573;28;20636;-57
2023/05/27 08:30:16;;;;;;;12.00;4.50;;;20.20;99.90;;;;;;5047270;28;20671;-57
2023/05/27 08:32:42;;;;;;;9.10;3.30;;;20.10;99.90;;;;;;5048546;28;20884;-57
2023/05/27 08:35:08;;;;;;;5.87;3.50;;;20.30;99.90;;;;;;5048468;28;20555;-56
2023/05/27 08:37:34;;;;;;;10.77;3.47;;;20.40;99.90;;;;;;5049542;28;20543;-57
2023/05/27 08:39:59;;;;;;;8.40;3.70;;;20.40;99.90;;;;;;5048685;28;20455;-57
2023/05/27 08:42:25;;;;;;;8.30;3.90;;;20.30;99.90;;;;;;5049016;28;20240;-56
2023/05/27 08:44:51;;;;;;;7.90;3.17;;;20.30;99.90;;;;;;5048310;28;20193;-56
2023/05/27 08:47:17;;;;;;;7.73;3.70;;;20.00;99.90;;;;;;5050309;28;20469;-56
2023/05/27 08:49:43;;;;;;;7.13;3.00;;;19.70;99.90;;;;;;5052477;28;20443;-56
2023/05/27 08:52:13;;;;;;;6.83;3.63;;;19.70;99.90;;;;;;5051268;28;20189;-57
2023/05/27 08:54:39;;;;;;;6.60;3.17;;;19.70;99.90;;;;;;5046086;28;20452;-56
2023/05/27 08:57:09;;;;;;;9.13;3.50;;;19.90;99.90;;;;;;5041749;28;20471;-56
2023/05/27 08:59:36;;;;;;;7.10;4.20;;;19.80;99.90;;;;;;5042368;28;20472;-55
2023/05/27 09:02:04;;;;;;;7.53;4.00;;;19.40;99.90;;;;;;5046196;28;20508;-57
2023/05/27 09:04:30;;;;;;;7.53;3.00;;;19.40;99.90;;;;;;5048200;28;20440;-57
2023/05/27 09:06:56;;;;;;;8.60;3.43;;;19.30;99.90;;;;;;5047156;28;20802;-57
2023/05/27 09:09:21;;;;;;;9.73;3.67;;;19.60;99.90;;;;;;5044532;28;20192;-57
2023/05/27 09:11:47;;;;;;;6.90;3.87;;;19.90;99.90;;;;;;5050782;28;20535;-56
2023/05/27 09:14:22;;;;;;;7.90;3.50;;;20.10;99.90;;;;;;5064435;28;20227;-56
2023/05/27 09:16:47;;;;;;;6.93;4.10;;;20.10;99.90;;;;;;5051107;28;20192;-57
2023/05/27 09:19:20;;;;;;;9.03;3.90;;;20.20;99.90;;;;;;5049834;28;20598;-56
2023/05/27 09:21:46;;;;;;;10.07;4.07;;;20.30;99.90;;;;;;5049663;28;20191;-55
2023/05/27 09:24:12;;;;;;;4.97;3.37;;;20.30;99.90;;;;;;5049417;28;20464;-55
2023/05/27 09:26:38;;;;;;;9.13;3.93;;;20.10;99.90;;;;;;5047761;28;20547;-58
2023/05/27 09:29:07;;;;;;;7.53;3.53;;;19.90;99.90;;;;;;5046183;28;20185;-55
2023/05/27 09:31:40;;;;;;;6.33;3.30;;;19.70;99.90;;;;;;5045888;28;21002;-55
2023/05/27 09:34:16;;;;;;;7.17;3.50;;;19.90;99.90;;;;;;5047751;28;20554;-57
2023/05/27 09:36:46;;;;;;;11.60;4.33;;;20.30;99.90;;;;;;5046817;28;20447;-55
2023/05/27 09:39:15;;;;;;;8.53;3.60;;;20.20;99.90;;;;;;5046976;28;20612;-56
2023/05/27 09:41:42;;;;;;;8.03;3.90;;;20.00;99.90;;;;;;5047269;28;20445;-56
2023/05/27 09:44:08;;;;;;;9.23;3.73;;;19.70;99.90;;;;;;5045347;28;20499;-59
2023/05/27 09:46:35;;;;;;;7.87;3.40;;;19.80;99.90;;;;;;5043859;28;20492;-56
2023/05/27 09:49:04;;;;;;;6.77;3.33;;;20.00;99.90;;;;;;5044250;28;20501;-57
2023/05/27 09:51:31;;;;;;;6.13;3.33;;;20.10;99.90;;;;;;5044325;28;20453;-56
2023/05/27 09:53:58;;;;;;;7.67;4.17;;;20.10;99.90;;;;;;5049026;28;20464;-56
2023/05/27 09:56:26;;;;;;;6.90;3.53;;;20.10;99.90;;;;;;5047574;28;20457;-56
2023/05/27 09:58:56;;;;;;;6.50;3.50;;;20.20;99.90;;;;;;5046518;28;20508;-55
2023/05/27 10:01:28;;;;;;;6.33;4.40;;;19.70;99.90;;;;;;5047433;28;20514;-56
2023/05/27 10:03:54;;;;;;;7.70;4.03;;;19.60;99.90;;;;;;5047355;28;20443;-57
2023/05/27 10:06:21;;;;;;;8.50;3.90;;;19.90;99.90;;;;;;5051334;28;21000;-56
2023/05/27 10:08:47;;;;;;;4.53;2.97;;;20.00;99.90;;;;;;5046341;28;20458;-57
2023/05/27 10:11:13;;;;;;;7.77;3.87;;;19.80;99.90;;;;;;5046227;28;20444;-57
2023/05/27 10:13:39;;;;;;;8.10;3.60;;;20.00;99.90;;;;;;5042585;28;20564;-56
2023/05/27 10:16:05;;;;;;;8.60;3.60;;;20.50;99.90;;;;;;5045116;28;20989;-57
2023/05/27 10:18:33;;;;;;;11.00;3.73;;;20.80;99.90;;;;;;5045019;28;20473;-57
2023/05/27 10:21:00;;;;;;;8.53;3.93;;;21.00;99.90;;;;;;5048345;28;20456;-57
2023/05/27 10:23:28;;;;;;;7.77;3.73;;;21.20;99.90;;;;;;5049371;28;21036;-56
2023/05/27 10:26:02;;;;;;;7.30;3.83;;;20.90;99.90;;;;;;5044850;28;20457;-57
2023/05/27 10:28:41;;;;;;;6.13;3.67;;;20.80;99.90;;;;;;5047786;28;20453;-56
2023/05/27 10:31:30;;;;;;;6.73;3.67;;;20.50;99.90;;;;;;5049350;28;20449;-57
2023/05/27 10:33:57;;;;;;;5.03;3.23;;;20.60;99.90;;;;;;5041813;28;20452;-56
2023/05/27 10:36:28;;;;;;;8.03;4.00;;;20.70;99.90;;;;;;5049853;28;20456;-57
2023/05/27 10:38:56;;;;;;;7.17;3.73;;;20.70;99.90;;;;;;5067799;28;20506;-58
2023/05/27 10:41:22;;;;;;;8.37;3.23;;;20.80;99.90;;;;;;5044155;28;20535;-57
2023/05/27 10:43:58;;;;;;;6.27;3.53;;;20.60;99.90;;;;;;5046878;28;20962;-56
2023/05/27 10:46:24;;;;;;;6.57;3.33;;;20.60;99.90;;;;;;5048465;28;20969;-57
2023/05/27 10:48:50;;;;;;;6.23;3.20;;;20.70;99.90;;;;;;5045431;28;20457;-57
2023/05/27 10:51:15;;;;;;;8.27;3.43;;;21.10;99.90;;;;;;5047890;28;20514;-57
2023/05/27 10:53:41;;;;;;;4.93;3.10;;;21.20;99.90;;;;;;5049042;28;20270;-57
2023/05/27 10:56:08;;;;;;;6.23;3.43;;;21.20;99.90;;;;;;5046508;28;20191;-58
2023/05/27 10:58:36;;;;;;;5.90;3.10;;;21.10;99.90;;;;;;5045803;28;20233;-59
2023/05/27 11:01:11;;;;;;;6.33;3.73;;;21.30;99.90;;;;;;5051594;28;20441;-57
2023/05/27 11:03:43;;;;;;;7.13;4.20;;;21.50;99.90;;;;;;5046479;28;20760;-58
2023/05/27 11:06:11;;;;;;;5.70;3.40;;;21.70;99.90;;;;;;5046440;28;20447;-58
2023/05/27 11:08:37;;;;;;;5.07;2.83;;;21.80;99.90;;;;;;5046956;28;20449;-56
2023/05/27 11:11:05;;;;;;;7.17;2.80;;;21.70;99.90;;;;;;5048811;28;20454;-58
2023/05/27 11:13:35;;;;;;;7.63;4.17;;;21.80;99.90;;;;;;5048302;28;20468;-57
2023/05/27 11:16:06;;;;;;;5.97;2.80;;;21.90;99.90;;;;;;5048704;28;20922;-57
2023/05/27 11:18:42;;;;;;;5.80;3.13;;;21.90;99.90;;;;;;5047868;28;20472;-57
2023/05/27 11:21:09;;;;;;;4.57;3.30;;;21.80;99.90;;;;;;5047111;28;21001;-57
2023/05/27 11:23:40;;;;;;;7.23;3.23;;;21.70;99.90;;;;;;5049478;28;20481;-56
2023/05/27 11:26:19;;;;;;;6.27;3.27;;;21.60;99.90;;;;;;5044583;28;20544;-57
2023/05/27 11:28:57;;;;;;;6.17;3.60;;;21.40;99.90;;;;;;5043840;28;20481;-58
2023/05/27 11:31:30;;;;;;;4.87;2.37;;;21.20;99.90;;;;;;5048162;28;20510;-56
2023/05/27 11:33:56;;;;;;;3.23;2.70;;;21.40;99.90;;;;;;5048416;28;20445;-57
2023/05/27 11:36:26;;;;;;;8.57;3.20;;;21.20;99.90;;;;;;5048629;28;20472;-56
2023/05/27 11:38:58;;;;;;;5.43;3.00;;;21.40;99.90;;;;;;5048796;28;20954;-57
2023/05/27 11:41:28;;;;;;;4.40;2.73;;;21.60;99.90;;;;;;5047848;28;21012;-57
2023/05/27 11:44:04;;;;;;;4.40;3.00;;;21.50;99.90;;;;;;5045759;28;20511;-56
2023/05/27 11:46:41;;;;;;;6.00;3.53;;;21.60;99.90;;;;;;5049046;28;20957;-56
2023/05/27 11:49:11;;;;;;;5.37;3.10;;;21.70;99.90;;;;;;5049011;28;20448;-56
2023/05/27 11:51:49;;;;;;;6.90;2.90;;;21.70;99.90;;;;;;5047756;28;20444;-58
2023/05/27 11:54:25;;;;;;;3.47;2.70;;;21.80;99.90;;;;;;5049735;28;20739;-56
2023/05/27 11:56:52;;;;;;;8.60;3.00;;;21.70;99.90;;;;;;5046186;28;20454;-56
2023/05/27 11:59:19;;;;;;;5.47;3.10;;;21.50;99.90;;;;;;5044761;28;20487;-56
2023/05/27 12:01:45;;;;;;;5.50;3.13;;;21.40;99.90;;;;;;5050205;28;20454;-57
2023/05/27 12:04:11;;;;;;;8.43;2.67;;;21.40;99.90;;;;;;5048554;28;20457;-57
2023/05/27 12:06:37;;;;;;;8.50;3.10;;;21.80;99.90;;;;;;5051696;28;20453;-58
2023/05/27 12:09:06;;;;;;;6.43;3.00;;;22.00;99.90;;;;;;5049530;28;20453;-56
2023/05/27 12:11:33;;;;;;;5.67;3.07;;;22.00;99.90;;;;;;5051190;28;20507;-57
2023/05/27 12:13:58;;;;;;;5.23;2.93;;;21.70;99.90;;;;;;5048212;28;20489;-57
2023/05/27 12:16:24;;;;;;;5.10;3.20;;;21.60;99.90;;;;;;5046568;28;20473;-56
2023/05/27 12:18:50;;;;;;;6.00;2.73;;;21.60;99.90;;;;;;5050397;28;20211;-57
2023/05/27 12:21:17;;;;;;;5.50;3.40;;;22.10;99.90;;;;;;5050454;28;20449;-56
2023/05/27 12:23:42;;;;;;;4.37;3.43;;;22.10;99.90;;;;;;5045007;28;20814;-57
2023/05/27 12:26:09;;;;;;;7.00;3.93;;;22.10;99.90;;;;;;5048140;28;20451;-58
2023/05/27 12:28:35;;;;;;;5.17;3.30;;;22.20;99.90;;;;;;5048975;28;20200;-56
2023/05/27 12:31:01;;;;;;;4.10;2.77;;;22.30;99.90;;;;;;5050183;28;20441;-56
2023/05/27 12:33:26;;;;;;;5.50;3.00;;;22.50;99.90;;;;;;5043732;28;20222;-57
2023/05/27 12:35:52;;;;;;;8.00;3.23;;;22.40;99.90;;;;;;5051818;28;20283;-57
2023/05/27 12:38:18;;;;;;;4.60;2.50;;;22.30;99.90;;;;;;5049822;28;20297;-57
2023/05/27 12:40:44;;;;;;;6.50;3.73;;;22.40;99.90;;;;;;5050353;28;20213;-58
2023/05/27 12:43:10;;;;;;;6.10;3.60;;;22.30;99.90;;;;;;5048883;28;20202;-55
2023/05/27 12:45:35;;;;;;;9.10;3.10;;;22.30;99.90;;;;;;5048609;28;20449;-57
2023/05/27 12:48:01;;;;;;;5.13;3.30;;;22.30;99.90;;;;;;5051760;28;20223;-57